Time;durP1;ratioP1;P1;durP2;ratioP2;P2;SDS_P1;SDS_P2;PMS_P1;PMS_P2;Temp;Humidity;BMP_temperature;BMP_pressure;BME280_temperature;BME280_humidity;BME280_pressure;Samples;Min_cycle;Max_cycle;Signal;HPM_P1;HPM_P2
2022/01/25 00:24:16;;;;;;;83.88;48.35;;;;;;;0.90;96.60;103397.31;4971218;28;20415;-86
2022/01/25 00:24:34;;;;;;;80.63;46.35;;;;;;;0.93;96.19;103386.97;4972233;28;20403;-86
2022/01/25 00:27:11;;;;;;;78.97;46.22;;;;;;;0.95;96.54;103387.84;4971374;28;20119;-89
2022/01/25 00:29:59;;;;;;;77.45;46.92;;;;;;;0.94;96.65;103383.50;4969916;28;20407;-86
2022/01/25 00:32:25;;;;;;;82.13;47.00;;;;;;;0.98;96.03;103395.63;4954136;28;20110;-86
2022/01/25 00:34:50;;;;;;;79.43;47.65;;;;;;;0.95;96.88;103387.84;4970896;28;20045;-86
2022/01/25 00:37:16;;;;;;;81.68;47.10;;;;;;;0.98;96.15;103390.44;4985715;28;20023;-86
2022/01/25 00:39:42;;;;;;;80.57;48.03;;;;;;;0.99;96.66;103391.31;4971152;28;20026;-86
2022/01/25 00:42:08;;;;;;;84.72;48.70;;;;;;;0.97;96.75;103382.66;4954367;28;20029;-89
2022/01/25 00:44:37;;;;;;;82.95;48.08;;;;;;;0.98;96.82;103387.84;4964664;28;20061;-86
2022/01/25 00:47:06;;;;;;;86.82;48.38;;;;;;;1.01;97.40;103390.47;4951919;28;20019;-86
2022/01/25 00:49:35;;;;;;;81.07;48.67;;;;;;;1.01;96.97;103385.28;4969812;28;20439;-90
2022/01/25 00:52:17;;;;;;;86.85;47.97;;;;;;;1.00;96.76;103386.13;4970104;28;20484;-87
2022/01/25 00:54:43;;;;;;;80.57;48.53;;;;;;;1.03;96.80;103387.88;4970849;28;20037;-86
2022/01/25 00:57:09;;;;;;;81.18;45.58;;;;;;;1.04;97.02;103374.94;4970803;28;20022;-90
2022/01/25 00:59:34;;;;;;;77.95;46.33;;;;;;;1.04;97.15;103380.13;4971227;28;20037;-90
2022/01/25 01:02:04;;;;;;;78.20;46.92;;;;;;;1.06;96.74;103386.16;4970887;28;20142;-87
2022/01/25 01:04:31;;;;;;;79.60;46.72;;;;;;;1.08;96.90;103386.19;4971207;28;20057;-90
2022/01/25 01:06:57;;;;;;;77.45;46.05;;;;;;;1.09;96.84;103381.00;4970006;28;20543;-86
2022/01/25 01:09:23;;;;;;;77.82;45.50;;;;;;;1.05;96.87;103376.66;4971828;28;20109;-89
2022/01/25 01:14:39;;;;;;;80.00;46.63;;;;;;;1.12;97.30;103388.78;4970750;28;20042;-84
2022/01/25 01:28:44;;;;;;;82.45;46.60;;;;;;;1.10;97.14;103384.47;4971042;28;20030;-88
2022/01/25 01:44:22;;;;;;;87.75;49.15;;;;;;;1.19;97.19;103389.69;4951329;28;20062;-84
2022/01/25 01:49:27;;;;;;;90.43;50.80;;;;;;;1.18;97.47;103375.88;4954797;28;20041;-88
2022/01/25 01:51:53;;;;;;;92.10;50.15;;;;;;;1.28;97.58;103394.09;4970334;28;20057;-88
2022/01/25 01:54:18;;;;;;;89.13;50.33;;;;;;;1.30;97.51;103397.56;4970381;28;20476;-84
2022/01/25 01:56:44;;;;;;;93.00;50.00;;;;;;;1.28;97.13;103394.09;4970155;28;20027;-85
2022/01/25 01:59:14;;;;;;;92.40;50.53;;;;;;;1.31;98.04;103399.28;4953312;28;20023;-88
2022/01/25 02:01:42;;;;;;;86.70;49.40;;;;;;;1.30;97.79;103397.56;4967674;28;20030;-84
2022/01/25 02:04:09;;;;;;;88.20;50.33;;;;;;;1.32;97.48;103396.72;4972524;28;20611;-85
2022/01/25 02:06:35;;;;;;;87.35;50.65;;;;;;;1.32;97.40;103401.03;4974421;28;20106;-88
2022/01/25 02:09:02;;;;;;;86.40;50.03;;;;;;;1.32;98.16;103396.72;4973390;28;20134;-85
2022/01/25 02:11:28;;;;;;;83.88;49.42;;;;;;;1.29;97.86;103383.72;4974276;28;20403;-84
2022/01/25 02:13:54;;;;;;;83.57;49.47;;;;;;;1.35;97.50;103391.53;4974077;28;20023;-85
2022/01/25 02:16:45;;;;;;;86.50;49.40;;;;;;;1.35;98.06;103391.53;4973396;28;20034;-84
2022/01/25 02:24:42;;;;;;;86.47;48.85;;;;;;;1.40;97.60;103388.97;4974706;28;20533;-85
2022/01/25 02:27:08;;;;;;;83.63;48.20;;;;;;;1.40;98.22;103383.78;4974526;28;20031;-88
2022/01/25 02:29:34;;;;;;;86.90;49.85;;;;;;;1.33;98.04;103371.66;4974487;28;20038;-85
2022/01/25 02:32:00;;;;;;;86.40;50.15;;;;;;;1.37;98.16;103378.56;4972991;28;20571;-85
2022/01/25 02:34:26;;;;;;;84.07;48.92;;;;;;;1.35;97.50;103370.78;4973918;28;20059;-85
2022/01/25 02:37:07;;;;;;;80.97;47.40;;;;;;;1.37;97.62;103368.19;4973084;28;20417;-84
2022/01/25 02:39:37;;;;;;;81.28;48.03;;;;;;;1.41;97.84;103369.94;4989231;28;20077;-84
2022/01/25 02:42:04;;;;;;;79.47;47.78;;;;;;;1.37;98.01;103357.81;4974221;28;20033;-88
2022/01/25 02:44:30;;;;;;;86.20;49.33;;;;;;;1.42;97.84;103366.50;4955932;28;20051;-85
2022/01/25 02:49:26;;;;;;;81.45;47.08;;;;;;;1.40;97.98;103357.84;4971802;28;20077;-84
2022/01/25 02:51:52;;;;;;;84.45;48.10;;;;;;;1.44;97.89;103363.03;4972670;28;20448;-88
2022/01/25 02:54:17;;;;;;;82.70;47.60;;;;;;;1.43;98.06;103358.72;4976993;28;20032;-88
2022/01/25 02:56:44;;;;;;;81.78;47.15;;;;;;;1.46;98.23;103358.72;4953492;29;20538;-85
2022/01/25 02:59:11;;;;;;;80.30;46.97;;;;;;;1.48;98.35;103356.13;4953692;28;20165;-88
2022/01/25 03:01:37;;;;;;;82.13;46.83;;;;;;;1.45;97.85;103356.13;4962731;28;20034;-88
2022/01/25 03:04:05;;;;;;;79.50;47.05;;;;;;;1.41;98.09;103349.19;4970906;28;20019;-84
2022/01/25 03:06:31;;;;;;;84.60;48.30;;;;;;;1.47;98.53;103354.41;4970581;28;20128;-88
2022/01/25 03:08:56;;;;;;;91.18;51.88;;;;;;;1.47;97.78;103344.91;4955470;28;20058;-88
2022/01/25 03:11:23;;;;;;;91.53;51.88;;;;;;;1.46;97.98;103342.28;4955862;28;20500;-85
2022/01/25 03:13:52;;;;;;;84.25;49.78;;;;;;;1.55;98.28;103352.69;4955611;28;20038;-88
2022/01/25 03:16:34;;;;;;;81.85;47.28;;;;;;;1.52;98.56;103350.09;4973190;28;20050;-88
2022/01/25 03:19:03;;;;;;;80.30;48.67;;;;;;;1.58;98.25;103344.94;4973028;28;20085;-88
2022/01/25 03:21:36;;;;;;;87.88;49.17;;;;;;;1.57;98.36;103336.28;4973590;28;20475;-85
2022/01/25 03:24:04;;;;;;;95.93;53.17;;;;;;;1.55;98.40;103331.94;4957371;28;20069;-85
2022/01/25 03:26:30;;;;;;;98.30;54.20;;;;;;;1.56;97.79;103333.69;4973467;28;20395;-84
2022/01/25 03:28:56;;;;;;;89.82;49.97;;;;;;;1.57;97.73;103341.47;4973918;28;20031;-85
2022/01/25 03:31:22;;;;;;;84.40;49.80;;;;;;;1.62;97.31;103354.47;4973304;28;20023;-88
2022/01/25 03:33:48;;;;;;;77.13;46.53;;;;;;;1.55;97.80;103335.41;4973400;28;20027;-84
2022/01/25 03:36:14;;;;;;;78.13;46.85;;;;;;;1.63;97.81;103340.66;4974484;28;20463;-84
2022/01/25 03:38:41;;;;;;;75.32;45.63;;;;;;;1.62;98.00;103338.06;4973617;28;20443;-88
2022/01/25 03:41:11;;;;;;;76.22;45.53;;;;;;;1.55;97.89;103324.16;4988434;28;20464;-85
2022/01/25 03:43:37;;;;;;;79.30;46.08;;;;;;;1.61;97.85;103334.59;4972711;28;20442;-88
2022/01/25 03:46:14;;;;;;;79.70;47.70;;;;;;;1.58;97.81;103337.16;4972524;28;20451;-88
2022/01/25 03:51:24;;;;;;;83.57;47.53;;;;;;;1.62;97.79;103338.91;4967716;28;20042;-85
2022/01/25 03:53:51;;;;;;;81.60;47.45;;;;;;;1.63;98.17;103343.25;4953131;28;20027;-85
2022/01/25 03:56:16;;;;;;;87.35;48.75;;;;;;;1.63;98.18;103340.66;4952541;29;20034;-85
2022/01/25 03:58:44;;;;;;;81.07;46.72;;;;;;;1.63;98.13;103339.78;4953291;28;20024;-85
2022/01/25 04:01:10;;;;;;;83.10;47.08;;;;;;;1.64;98.01;103347.56;4969445;28;20632;-84
2022/01/25 04:03:42;;;;;;;82.10;46.92;;;;;;;1.58;98.17;103335.41;4971243;28;20119;-85
2022/01/25 04:06:07;;;;;;;81.10;45.80;;;;;;;1.63;97.86;103337.19;4975203;28;20027;-88
2022/01/25 04:08:35;;;;;;;85.43;45.67;;;;;;;1.64;98.17;103349.31;4952853;28;20023;-88
2022/01/25 04:11:00;;;;;;;86.40;47.47;;;;;;;1.62;98.10;103344.09;4952291;28;20082;-85
2022/01/25 04:13:26;;;;;;;80.80;45.47;;;;;;;1.59;98.06;103341.47;4952818;28;20473;-85
2022/01/25 04:15:54;;;;;;;78.90;46.83;;;;;;;1.61;98.29;103342.38;4951592;28;20028;-85
2022/01/25 04:18:33;;;;;;;84.20;47.28;;;;;;;1.65;97.92;103346.72;4984402;28;20467;-85
2022/01/25 04:21:10;;;;;;;80.53;45.50;;;;;;;1.66;98.18;103348.44;4970461;28;20030;-85
2022/01/25 04:26:19;;;;;;;83.28;46.75;;;;;;;1.69;98.16;103345.00;4971896;28;20042;-84
2022/01/25 04:28:45;;;;;;;78.85;46.38;;;;;;;1.69;98.47;103340.66;4953882;28;20018;-85
2022/01/25 04:31:10;;;;;;;85.53;48.03;;;;;;;1.70;98.27;103341.53;4971844;28;20181;-88
2022/01/25 04:33:42;;;;;;;83.68;47.17;;;;;;;1.68;98.08;103333.75;4953312;28;20030;-88
2022/01/25 04:36:54;;;;;;;83.25;47.13;;;;;;;1.67;98.29;103324.22;4953718;28;20030;-85
2022/01/25 04:50:37;;;;;;;80.07;47.53;;;;;;;1.69;98.17;103327.69;4958990;28;20094;-85
2022/01/25 04:53:10;;;;;;;84.82;47.10;;;;;;;1.74;98.73;103333.75;4968179;28;20114;-85
2022/01/25 04:55:47;;;;;;;81.78;46.40;;;;;;;1.76;98.58;103337.22;4971808;28;20031;-85
2022/01/25 04:58:21;;;;;;;80.20;46.25;;;;;;;1.73;98.47;103326.84;4954623;28;20399;-88
2022/01/25 05:00:48;;;;;;;78.00;46.65;;;;;;;1.76;98.54;103326.84;4968425;28;20050;-88
2022/01/25 05:03:21;;;;;;;81.80;46.00;;;;;;;1.73;98.75;103321.66;4952167;28;20126;-85
2022/01/25 05:06:06;;;;;;;84.45;48.35;;;;;;;1.78;98.58;103330.31;4970171;28;20027;-84
2022/01/25 05:08:38;;;;;;;83.68;46.30;;;;;;;1.77;98.07;103315.59;4969128;28;20042;-88
2022/01/25 05:11:10;;;;;;;86.57;48.42;;;;;;;1.73;98.14;103318.19;4970800;28;20033;-84
2022/01/25 05:13:58;;;;;;;85.72;47.80;;;;;;;1.77;98.15;103328.56;4970969;28;20580;-85
2022/01/25 05:16:39;;;;;;;83.53;47.38;;;;;;;1.74;98.50;103315.59;4970662;28;20030;-88
2022/01/25 05:24:35;;;;;;;86.60;48.88;;;;;;;1.73;98.00;103311.25;4969765;28;20038;-88
2022/01/25 05:27:00;;;;;;;87.82;49.45;;;;;;;1.74;98.75;103313.00;4968870;28;20574;-85
2022/01/25 05:29:26;;;;;;;81.63;47.10;;;;;;;1.73;97.90;103313.84;4970947;28;20030;-88
2022/01/25 05:31:51;;;;;;;84.03;47.95;;;;;;;1.81;98.36;103321.66;4969739;28;20023;-85
2022/01/25 05:34:17;;;;;;;85.68;47.72;;;;;;;1.80;98.32;103315.59;4970641;28;20053;-84
2022/01/25 05:36:43;;;;;;;82.00;45.97;;;;;;;1.79;98.40;103310.41;4966925;28;20476;-85
2022/01/25 05:39:20;;;;;;;87.47;47.92;;;;;;;1.80;98.77;103323.38;4973006;28;20107;-85
2022/01/25 05:41:56;;;;;;;79.88;46.33;;;;;;;1.76;98.61;103313.88;4974558;28;20046;-85
2022/01/25 05:44:26;;;;;;;89.88;48.60;;;;;;;1.80;98.71;103313.00;4970397;28;20047;-85
2022/01/25 05:49:23;;;;;;;80.30;46.80;;;;;;;1.78;98.17;103311.28;4976449;28;20046;-85
2022/01/25 05:51:49;;;;;;;85.88;47.92;;;;;;;1.79;98.18;103306.09;4973962;28;20031;-88
2022/01/25 05:54:15;;;;;;;83.05;47.05;;;;;;;1.81;98.43;103317.34;4991428;28;20039;-84
2022/01/25 05:56:40;;;;;;;84.05;46.88;;;;;;;1.81;98.53;103303.50;4987502;28;20031;-88
2022/01/25 05:59:06;;;;;;;87.10;47.75;;;;;;;1.80;98.57;103301.75;4974236;28;20037;-85
2022/01/25 06:01:32;;;;;;;81.20;46.65;;;;;;;1.83;98.40;103310.41;4972810;28;20038;-85
2022/01/25 06:03:58;;;;;;;81.07;46.22;;;;;;;1.83;98.51;103307.81;4973896;28;20030;-88
2022/01/25 06:06:24;;;;;;;83.80;47.25;;;;;;;1.82;98.81;103306.09;4956628;28;20118;-89
2022/01/25 06:08:49;;;;;;;86.90;48.22;;;;;;;1.80;98.43;103292.25;4974144;28;20027;-86
2022/01/25 06:11:14;;;;;;;91.20;48.97;;;;;;;1.80;99.18;103297.44;4974602;28;20114;-88
2022/01/25 06:13:40;;;;;;;90.43;48.63;;;;;;;1.84;98.71;103304.34;4973962;28;20184;-88
2022/01/25 06:16:05;;;;;;;88.45;48.53;;;;;;;1.85;99.03;103306.09;4974120;28;20030;-85
2022/01/25 06:18:30;;;;;;;84.35;46.60;;;;;;;1.84;98.43;103306.94;4974711;28;20050;-84
2022/01/25 06:20:56;;;;;;;82.82;47.38;;;;;;;1.81;98.56;103299.16;4973586;28;20023;-85
2022/01/25 06:23:21;;;;;;;90.13;48.25;;;;;;;1.85;98.71;103303.50;4957200;28;20031;-89
2022/01/25 06:25:47;;;;;;;91.60;49.90;;;;;;;1.84;98.39;103309.56;4973571;28;20046;-88
2022/01/25 06:28:13;;;;;;;86.60;47.58;;;;;;;1.83;98.76;103296.56;4970826;28;20472;-85
2022/01/25 06:30:39;;;;;;;89.43;49.47;;;;;;;1.88;99.20;103305.22;4972718;28;20438;-84
2022/01/25 06:33:07;;;;;;;86.90;48.80;;;;;;;1.86;98.83;103297.44;4971918;28;20058;-84
2022/01/25 06:35:34;;;;;;;88.43;49.42;;;;;;;1.84;98.70;103304.34;4973422;28;20027;-88
2022/01/25 06:37:59;;;;;;;85.25;49.33;;;;;;;1.86;98.28;103301.75;4975370;28;20042;-85
2022/01/25 06:40:25;;;;;;;87.40;49.15;;;;;;;1.87;98.69;103309.56;4973815;28;20031;-85
2022/01/25 06:42:50;;;;;;;88.97;49.13;;;;;;;1.84;98.36;103306.94;4973381;28;20031;-85
2022/01/25 06:45:18;;;;;;;90.38;50.30;;;;;;;1.84;98.60;103306.94;4988665;28;20069;-88
2022/01/25 06:47:48;;;;;;;87.90;48.67;;;;;;;1.91;98.61;103320.81;4975093;28;20053;-88
2022/01/25 06:50:16;;;;;;;89.38;49.80;;;;;;;1.88;98.47;103313.88;4979923;28;20066;-84
2022/01/25 06:52:42;;;;;;;85.38;47.33;;;;;;;1.85;98.60;103307.81;4992538;28;20697;-84
2022/01/25 06:55:13;;;;;;;92.30;50.95;;;;;;;1.90;99.02;103313.88;4973491;28;20416;-84
2022/01/25 06:57:40;;;;;;;94.15;51.90;;;;;;;1.85;98.79;103306.09;4955956;28;20067;-84
2022/01/25 07:00:08;;;;;;;93.47;50.63;;;;;;;1.87;98.97;103308.69;4954206;28;20090;-84
2022/01/25 07:02:34;;;;;;;92.03;50.97;;;;;;;1.89;98.87;103315.59;4953862;28;20027;-84
2022/01/25 07:04:59;;;;;;;96.30;51.92;;;;;;;1.90;98.28;103319.06;4943114;28;20396;-84
2022/01/25 07:07:25;;;;;;;95.57;51.05;;;;;;;1.91;98.33;103327.72;4972344;28;20459;-85
2022/01/25 07:09:50;;;;;;;94.53;51.63;;;;;;;1.88;98.56;103316.47;4971709;28;20106;-88
2022/01/25 07:12:16;;;;;;;92.18;51.35;;;;;;;1.94;98.77;103332.91;4974850;28;20399;-88
2022/01/25 07:14:41;;;;;;;92.97;50.08;;;;;;;1.95;98.81;103337.25;4973623;28;20023;-88
2022/01/25 07:17:06;;;;;;;95.43;51.80;;;;;;;1.95;98.93;103337.25;4955812;28;20129;-88
2022/01/25 07:19:32;;;;;;;92.35;50.13;;;;;;;1.96;99.04;103338.97;4956167;28;20026;-84
2022/01/25 07:21:57;;;;;;;91.97;51.95;;;;;;;1.92;98.17;103327.72;4972144;28;20481;-84
2022/01/25 07:24:25;;;;;;;92.88;50.83;;;;;;;1.94;98.86;103325.13;4970096;28;20102;-84
2022/01/25 07:26:53;;;;;;;92.47;50.10;;;;;;;1.93;98.75;103318.22;4953312;28;20038;-88
2022/01/25 07:29:19;;;;;;;93.40;51.80;;;;;;;1.92;98.66;103321.66;4968080;28;20070;-84
2022/01/25 07:31:45;;;;;;;98.18;52.20;;;;;;;1.97;99.02;103330.31;4972671;28;20046;-88
2022/01/25 07:34:11;;;;;;;94.75;52.38;;;;;;;1.98;98.81;103334.66;4968420;28;20102;-84
2022/01/25 07:36:38;;;;;;;97.78;52.72;;;;;;;1.98;99.24;103332.94;4963421;28;20034;-88
2022/01/25 07:39:07;;;;;;;100.38;53.08;;;;;;;1.97;98.90;103325.13;4962640;28;20087;-84
2022/01/25 07:41:32;;;;;;;99.30;50.55;;;;;;;1.95;98.71;103324.28;4965744;28;20026;-89
2022/01/25 07:43:59;;;;;;;99.35;53.45;;;;;;;1.96;98.75;103328.59;4944084;28;20409;-85
2022/01/25 07:46:25;;;;;;;102.25;55.05;;;;;;;1.97;98.87;103330.31;4966034;28;20034;-84
2022/01/25 07:48:51;;;;;;;98.50;53.83;;;;;;;2.02;98.87;103331.22;4945396;28;20041;-85
2022/01/25 07:51:17;;;;;;;100.55;52.95;;;;;;;1.95;98.94;103326.88;4944731;28;20110;-86
2022/01/25 07:53:44;;;;;;;107.80;56.85;;;;;;;2.01;97.97;103337.28;4962134;28;20035;-85
2022/01/25 07:56:10;;;;;;;105.93;55.92;;;;;;;2.02;98.47;103337.28;4943705;28;20015;-85
2022/01/25 07:58:36;;;;;;;108.00;56.13;;;;;;;1.99;98.66;103339.84;4968857;28;20042;-84
2022/01/25 08:01:02;;;;;;;109.07;57.90;;;;;;;1.96;98.71;103329.47;4953635;28;20034;-85
2022/01/25 08:03:27;;;;;;;108.30;57.83;;;;;;;2.03;98.32;103338.16;4970887;28;20110;-88
2022/01/25 08:05:56;;;;;;;110.45;59.83;;;;;;;2.01;98.40;103332.09;4977553;28;20161;-85
2022/01/25 08:08:22;;;;;;;113.35;60.63;;;;;;;2.01;98.53;103335.56;4969407;28;20096;-84
2022/01/25 08:10:50;;;;;;;120.90;64.28;;;;;;;2.02;98.31;103333.81;4971129;28;20034;-85
2022/01/25 08:13:16;;;;;;;124.40;65.50;;;;;;;2.05;97.49;103339.03;4971205;28;20483;-90
2022/01/25 08:15:41;;;;;;;120.30;63.40;;;;;;;2.07;96.69;103338.16;4972126;28;20034;-85
2022/01/25 08:18:08;;;;;;;121.72;65.15;;;;;;;2.08;96.48;103333.84;4969828;28;20037;-85
2022/01/25 08:20:33;;;;;;;120.07;64.80;;;;;;;2.10;96.44;103342.50;4971440;28;20037;-85
2022/01/25 08:23:05;;;;;;;115.32;64.22;;;;;;;2.06;96.52;103328.63;4969714;28;20403;-85
2022/01/25 08:25:34;;;;;;;123.80;67.27;;;;;;;2.13;96.47;103348.56;4952474;28;20038;-89
2022/01/25 08:28:00;;;;;;;119.55;65.68;;;;;;;2.10;95.99;103345.09;4971267;28;20022;-89
2022/01/25 08:30:25;;;;;;;118.55;65.15;;;;;;;2.12;96.17;103348.53;4961234;28;20384;-85
2022/01/25 08:32:51;;;;;;;126.32;66.63;;;;;;;2.10;96.51;103342.50;4971415;28;20030;-89
2022/01/25 08:35:19;;;;;;;121.80;66.63;;;;;;;2.15;95.64;103357.22;4972187;28;20030;-89
2022/01/25 08:37:45;;;;;;;120.38;65.82;;;;;;;2.16;95.22;103353.75;4970763;28;20058;-85
2022/01/25 08:40:11;;;;;;;124.47;67.85;;;;;;;2.14;95.26;103346.81;4952962;28;20106;-89
2022/01/25 08:42:37;;;;;;;122.45;67.18;;;;;;;2.15;94.66;103348.56;4955468;28;20034;-85
2022/01/25 08:45:06;;;;;;;121.88;64.80;;;;;;;2.23;94.48;103356.34;4967447;28;20601;-85
2022/01/25 08:47:31;;;;;;;122.60;67.90;;;;;;;2.25;95.12;103350.28;4972987;28;20039;-84
2022/01/25 08:49:57;;;;;;;118.53;66.50;;;;;;;2.19;94.32;103337.31;4939209;29;20041;-84
2022/01/25 08:52:22;;;;;;;120.57;66.43;;;;;;;2.27;94.49;103351.16;4953620;28;20061;-84
2022/01/25 08:54:48;;;;;;;122.63;67.35;;;;;;;2.23;95.63;103341.63;4989897;28;20038;-85
2022/01/25 08:57:14;;;;;;;123.32;67.40;;;;;;;2.28;94.93;103352.88;4990622;28;20120;-84
2022/01/25 08:59:39;;;;;;;126.47;67.75;;;;;;;2.31;94.63;103352.03;4992347;28;20026;-87
2022/01/25 09:02:05;;;;;;;129.05;68.20;;;;;;;2.29;94.23;103349.41;4970059;28;20049;-84
2022/01/25 09:04:30;;;;;;;139.10;72.68;;;;;;;2.32;93.40;103354.63;4972756;28;20034;-84
2022/01/25 09:06:56;;;;;;;131.00;72.10;;;;;;;2.33;94.14;103355.47;4971326;28;20027;-84
2022/01/25 09:09:21;;;;;;;135.10;72.78;;;;;;;2.35;93.88;103357.22;4955027;28;20113;-85
2022/01/25 09:11:47;;;;;;;138.68;73.28;;;;;;;2.39;93.86;103358.94;4985804;28;20117;-86
2022/01/25 09:14:14;;;;;;;138.57;74.00;;;;;;;2.39;93.63;103358.94;4961915;28;20026;-87
2022/01/25 09:16:40;;;;;;;146.93;77.15;;;;;;;2.42;93.45;103360.72;4967221;28;20023;-87
2022/01/25 09:19:06;;;;;;;147.82;77.38;;;;;;;2.48;93.29;103368.50;4963132;28;20127;-91
2022/01/25 09:21:33;;;;;;;145.88;76.80;;;;;;;2.47;93.07;103359.84;4974201;28;20007;-87
2022/01/25 09:23:58;;;;;;;145.13;76.30;;;;;;;2.50;92.44;103367.63;4969975;28;20027;-85
2022/01/25 09:26:24;;;;;;;141.82;74.57;;;;;;;2.51;92.54;103361.56;4974236;28;20143;-88
2022/01/25 09:28:53;;;;;;;142.05;76.88;;;;;;;2.55;92.83;103366.75;4953107;28;20031;-84
2022/01/25 09:31:19;;;;;;;146.95;78.88;;;;;;;2.56;92.29;103371.09;4971310;28;20069;-88
2022/01/25 09:33:45;;;;;;;148.40;81.05;;;;;;;2.57;91.66;103362.44;4971991;28;20022;-85
2022/01/25 09:36:10;;;;;;;146.52;79.47;;;;;;;2.55;91.72;103366.75;4972140;28;20173;-85
2022/01/25 09:38:36;;;;;;;151.45;80.72;;;;;;;2.58;91.43;103367.63;4954852;28;20498;-84
2022/01/25 09:41:02;;;;;;;154.25;82.97;;;;;;;2.59;92.22;103368.50;4954903;28;20062;-84
2022/01/25 09:43:28;;;;;;;154.48;81.68;;;;;;;2.61;91.90;103366.75;4972959;28;20030;-84
2022/01/25 09:45:55;;;;;;;160.93;82.78;;;;;;;2.63;91.29;103367.63;4971421;28;20516;-85
2022/01/25 09:48:20;;;;;;;156.20;83.13;;;;;;;2.63;91.62;103371.09;4973553;28;20045;-84
2022/01/25 09:50:47;;;;;;;155.13;81.13;;;;;;;2.66;91.39;103370.22;4955311;28;20487;-88
2022/01/25 09:53:12;;;;;;;152.43;80.63;;;;;;;2.70;91.74;103372.81;4954452;28;20019;-90
2022/01/25 09:55:40;;;;;;;154.43;82.57;;;;;;;2.71;91.10;103379.75;4955495;28;20023;-86
2022/01/25 09:58:06;;;;;;;158.25;81.93;;;;;;;2.72;90.66;103375.41;4955478;28;20038;-87
2022/01/25 10:00:33;;;;;;;157.57;82.07;;;;;;;2.74;90.55;103376.28;4970632;28;20031;-87
2022/01/25 10:05:38;;;;;;;161.88;84.18;;;;;;;2.76;90.44;103378.00;4971747;28;20026;-90
2022/01/25 10:08:12;;;;;;;155.35;83.25;;;;;;;2.80;90.48;103384.06;4971267;28;20045;-86
2022/01/25 10:10:44;;;;;;;156.88;80.72;;;;;;;2.76;90.42;103369.34;4955055;28;20030;-87
2022/01/25 10:13:27;;;;;;;151.90;79.72;;;;;;;2.86;90.66;103378.88;4971962;28;20035;-87
2022/01/25 10:16:06;;;;;;;143.27;77.63;;;;;;;2.87;90.45;103391.00;4972272;28;20384;-90
2022/01/25 10:18:48;;;;;;;144.82;79.35;;;;;;;2.89;90.24;103381.47;4969198;28;20027;-90
2022/01/25 10:21:22;;;;;;;145.93;78.67;;;;;;;2.91;89.54;103381.47;4969440;28;20023;-86
2022/01/25 10:24:06;;;;;;;140.32;75.53;;;;;;;2.92;89.86;103384.06;4984615;28;20292;-87
2022/01/25 10:26:41;;;;;;;140.40;77.90;;;;;;;2.91;89.31;103390.13;4988456;28;20039;-86
2022/01/25 10:29:10;;;;;;;133.00;74.80;;;;;;;2.91;89.43;103379.75;4965390;28;20420;-86
2022/01/25 10:31:41;;;;;;;132.35;73.43;;;;;;;2.95;89.52;103383.19;4974409;28;20023;-86
2022/01/25 10:34:09;;;;;;;138.88;75.50;;;;;;;2.90;89.51;103370.22;4971338;28;20062;-86
2022/01/25 10:36:47;;;;;;;138.80;77.78;;;;;;;2.99;89.50;103384.91;4973327;28;20169;-90
2022/01/25 10:39:26;;;;;;;134.38;75.15;;;;;;;3.00;89.74;103377.13;4989207;28;20023;-87
2022/01/25 10:41:52;;;;;;;138.85;76.20;;;;;;;2.98;88.99;103373.66;4970188;28;20066;-87
2022/01/25 10:44:17;;;;;;;138.63;76.97;;;;;;;3.03;89.46;103379.72;4955302;28;20058;-86
2022/01/25 10:46:49;;;;;;;137.35;76.88;;;;;;;3.02;88.50;103380.56;4973429;28;20387;-90
2022/01/25 10:49:15;;;;;;;133.80;75.13;;;;;;;3.02;89.09;103379.72;4971646;28;20026;-89
2022/01/25 10:51:49;;;;;;;133.60;75.50;;;;;;;3.04;88.60;103377.97;4988472;28;20026;-90
2022/01/25 10:54:23;;;;;;;132.27;73.90;;;;;;;3.06;88.57;103377.09;4956824;28;20395;-87
2022/01/25 10:56:53;;;;;;;134.77;74.95;;;;;;;3.03;87.66;103368.44;4970186;28;20046;-86
2022/01/25 10:59:25;;;;;;;129.23;74.97;;;;;;;3.13;88.21;103373.59;4954893;28;20027;-90
2022/01/25 11:01:57;;;;;;;130.48;72.70;;;;;;;3.12;87.93;103366.69;4971409;28;20488;-86
2022/01/25 11:04:25;;;;;;;131.48;74.03;;;;;;;3.12;87.80;103366.69;4973206;28;20061;-87
2022/01/25 11:07:09;;;;;;;133.20;74.32;;;;;;;3.21;88.54;103375.34;4972210;28;20034;-87
2022/01/25 11:09:40;;;;;;;136.55;75.70;;;;;;;3.20;87.21;103378.78;4965991;28;20026;-86
2022/01/25 11:12:10;;;;;;;130.95;75.95;;;;;;;3.19;87.59;103374.47;4969537;28;20035;-86
2022/01/25 11:14:53;;;;;;;135.45;75.80;;;;;;;3.17;87.62;103358.84;4972436;28;20065;-90
2022/01/25 11:17:27;;;;;;;134.40;75.60;;;;;;;3.25;87.35;103383.16;4954854;28;20038;-90
2022/01/25 11:19:54;;;;;;;132.93;74.03;;;;;;;3.25;87.44;103384.88;4954484;28;20059;-90
2022/01/25 11:22:20;;;;;;;131.18;76.25;;;;;;;3.27;87.36;103385.75;4988762;28;20023;-86
2022/01/25 11:24:59;;;;;;;134.43;75.03;;;;;;;3.28;87.79;103382.25;4987897;28;20050;-90
2022/01/25 11:27:27;;;;;;;133.73;75.43;;;;;;;3.27;86.65;103380.53;4972699;28;20026;-86
2022/01/25 11:29:55;;;;;;;137.10;77.57;;;;;;;3.28;86.64;103382.25;4953187;28;20487;-86
2022/01/25 11:32:25;;;;;;;135.10;75.15;;;;;;;3.27;87.53;103380.53;4968640;28;20027;-87
2022/01/25 11:34:52;;;;;;;135.38;76.22;;;;;;;3.30;86.71;103381.38;4968445;28;20081;-86
2022/01/25 11:37:17;;;;;;;133.02;75.43;;;;;;;3.32;87.71;103381.38;4953621;28;20019;-86
2022/01/25 11:39:47;;;;;;;136.50;76.10;;;;;;;3.31;87.03;103379.66;4972096;28;20054;-86
2022/01/25 11:42:18;;;;;;;135.57;77.18;;;;;;;3.32;87.55;103373.56;4972875;28;20107;-87
2022/01/25 11:44:53;;;;;;;131.25;77.18;;;;;;;3.36;87.39;103376.16;4987465;28;20117;-87
2022/01/25 11:47:21;;;;;;;134.60;76.82;;;;;;;3.37;87.07;103380.50;4973016;28;20042;-87
2022/01/25 11:49:50;;;;;;;134.70;76.97;;;;;;;3.31;86.25;103367.50;4986897;28;20038;-87
2022/01/25 11:52:17;;;;;;;137.32;78.03;;;;;;;3.31;86.34;103372.72;4973043;28;20376;-86
2022/01/25 11:54:44;;;;;;;131.90;76.55;;;;;;;3.33;85.25;103370.97;4973385;28;20027;-86
2022/01/25 11:57:20;;;;;;;128.07;75.10;;;;;;;3.35;86.58;103378.78;4973369;28;20063;-86
2022/01/25 11:59:55;;;;;;;129.05;76.25;;;;;;;3.34;85.61;103366.63;4969820;28;20031;-90
2022/01/25 12:02:44;;;;;;;132.98;75.65;;;;;;;3.42;87.22;103370.06;4984580;28;20512;-87
2022/01/25 12:05:18;;;;;;;127.05;74.45;;;;;;;3.39;86.37;103364.88;4969973;28;20035;-87
2022/01/25 12:08:06;;;;;;;130.13;74.13;;;;;;;3.45;86.75;103365.72;4970070;28;20026;-91
2022/01/25 12:10:42;;;;;;;125.72;71.82;;;;;;;3.39;85.89;103360.53;4954940;28;20419;-86
2022/01/25 12:13:27;;;;;;;124.82;71.88;;;;;;;3.42;85.72;103364.88;4967334;28;20395;-90
2022/01/25 12:16:28;;;;;;;129.38;72.63;;;;;;;3.48;84.93;103364.84;4953397;28;20521;-87
2022/01/25 12:18:58;;;;;;;127.53;73.70;;;;;;;3.45;85.07;103360.50;4971719;28;20089;-86
2022/01/25 12:21:46;;;;;;;132.50;74.68;;;;;;;3.50;85.85;103362.22;4988762;28;20022;-87
2022/01/25 12:24:34;;;;;;;128.75;74.22;;;;;;;3.49;85.69;103366.56;4971634;28;20105;-87
2022/01/25 12:29:43;;;;;;;131.80;74.60;;;;;;;3.54;85.76;103356.13;4971268;28;20407;-91
2022/01/25 12:32:23;;;;;;;129.23;74.38;;;;;;;3.56;85.52;103351.78;4972127;28;20098;-86
2022/01/25 12:35:02;;;;;;;131.15;73.10;;;;;;;3.52;84.74;103348.34;4971331;28;20033;-89
2022/01/25 12:37:55;;;;;;;134.80;73.63;;;;;;;3.59;85.88;103352.63;4973405;28;20046;-85
2022/01/25 12:40:24;;;;;;;132.38;73.90;;;;;;;3.57;85.09;103348.31;4969813;28;20030;-85
2022/01/25 12:42:50;;;;;;;126.80;73.22;;;;;;;3.60;85.11;103341.38;4970818;28;20014;-89
2022/01/25 12:45:20;;;;;;;123.93;71.85;;;;;;;3.59;84.61;103339.63;4970066;28;20062;-89
2022/01/25 12:48:05;;;;;;;127.25;74.35;;;;;;;3.65;85.14;103337.00;4973773;28;20109;-85
2022/01/25 12:50:32;;;;;;;128.35;74.80;;;;;;;3.63;84.61;103343.97;4973144;28;20054;-89
2022/01/25 12:52:59;;;;;;;131.07;74.05;;;;;;;3.56;84.49;103336.16;4953946;28;20488;-85